sensor_id;sensor_type;location;lat;lon;timestamp;pressure;altitude;pressure_sealevel;temperature;humidity
63204;BME280;49297;43.210;27.914;2023-05-22T00:02:23;100853.56;;;19.35;49.71
63204;BME280;49297;43.210;27.914;2023-05-22T00:04:50;100849.19;;;19.34;50.01
63204;BME280;49297;43.210;27.914;2023-05-22T00:07:17;100857.47;;;19.32;50.13
63204;BME280;49297;43.210;27.914;2023-05-22T00:09:42;100846.28;;;19.29;49.98
63204;BME280;49297;43.210;27.914;2023-05-22T00:12:08;100847.28;;;19.28;50.12
63204;BME280;49297;43.210;27.914;2023-05-22T00:14:36;100849.34;;;19.26;50.27
63204;BME280;49297;43.210;27.914;2023-05-22T00:17:05;100847.03;;;19.23;50.60
63204;BME280;49297;43.210;27.914;2023-05-22T00:19:32;100842.03;;;19.19;50.56
63204;BME280;49297;43.210;27.914;2023-05-22T00:21:59;100845.13;;;19.16;50.68
63204;BME280;49297;43.210;27.914;2023-05-22T00:24:25;100841.78;;;19.14;50.85
63204;BME280;49297;43.210;27.914;2023-05-22T00:26:51;100840.31;;;19.12;51.21
63204;BME280;49297;43.210;27.914;2023-05-22T00:29:19;100844.00;;;19.11;51.36
63204;BME280;49297;43.210;27.914;2023-05-22T00:31:47;100832.63;;;19.09;51.55
63204;BME280;49297;43.210;27.914;2023-05-22T00:34:13;100831.00;;;19.08;51.99
63204;BME280;49297;43.210;27.914;2023-05-22T00:36:39;100830.34;;;19.06;52.34
63204;BME280;49297;43.210;27.914;2023-05-22T00:39:05;100835.91;;;19.04;52.48
63204;BME280;49297;43.210;27.914;2023-05-22T00:41:31;100822.03;;;19.00;52.55
63204;BME280;49297;43.210;27.914;2023-05-22T00:44:04;100828.41;;;18.99;52.73
63204;BME280;49297;43.210;27.914;2023-05-22T00:46:32;100825.47;;;18.94;52.91
63204;BME280;49297;43.210;27.914;2023-05-22T00:48:58;100832.88;;;18.92;52.86
63204;BME280;49297;43.210;27.914;2023-05-22T00:51:24;100819.66;;;18.91;52.92
63204;BME280;49297;43.210;27.914;2023-05-22T00:53:50;100826.88;;;18.90;53.14
63204;BME280;49297;43.210;27.914;2023-05-22T00:56:17;100828.94;;;18.88;53.20
63204;BME280;49297;43.210;27.914;2023-05-22T00:58:44;100826.25;;;18.88;53.39
63204;BME280;49297;43.210;27.914;2023-05-22T01:01:10;100828.28;;;18.86;53.48
63204;BME280;49297;43.210;27.914;2023-05-22T01:03:39;100838.16;;;18.86;53.63
63204;BME280;49297;43.210;27.914;2023-05-22T01:06:16;100827.06;;;18.89;53.66
63204;BME280;49297;43.210;27.914;2023-05-22T01:08:46;100820.88;;;18.88;53.71
63204;BME280;49297;43.210;27.914;2023-05-22T01:11:17;100825.44;;;18.88;53.99
63204;BME280;49297;43.210;27.914;2023-05-22T01:14:20;100817.75;;;18.85;53.98
63204;BME280;49297;43.210;27.914;2023-05-22T01:25:12;100829.13;;;18.72;54.61
63204;BME280;49297;43.210;27.914;2023-05-22T01:33:08;100836.72;;;18.68;55.00
63204;BME280;49297;43.210;27.914;2023-05-22T01:35:39;100837.72;;;18.67;54.94
63204;BME280;49297;43.210;27.914;2023-05-22T01:38:06;100839.59;;;18.67;54.87
63204;BME280;49297;43.210;27.914;2023-05-22T01:40:33;100843.63;;;18.62;54.92
63204;BME280;49297;43.210;27.914;2023-05-22T01:43:01;100848.94;;;18.56;55.13
63204;BME280;49297;43.210;27.914;2023-05-22T01:45:27;100838.13;;;18.49;55.18
63204;BME280;49297;43.210;27.914;2023-05-22T01:47:54;100834.97;;;18.45;55.41
63204;BME280;49297;43.210;27.914;2023-05-22T01:50:21;100839.69;;;18.43;55.44
63204;BME280;49297;43.210;27.914;2023-05-22T01:55:44;100835.47;;;18.34;55.39
63204;BME280;49297;43.210;27.914;2023-05-22T02:00:49;100837.22;;;18.27;55.71
63204;BME280;49297;43.210;27.914;2023-05-22T02:03:21;100828.69;;;18.23;56.00
63204;BME280;49297;43.210;27.914;2023-05-22T02:05:53;100826.00;;;18.23;56.12
63204;BME280;49297;43.210;27.914;2023-05-22T02:08:22;100824.56;;;18.21;56.35
63204;BME280;49297;43.210;27.914;2023-05-22T02:10:51;100829.09;;;18.20;56.30
63204;BME280;49297;43.210;27.914;2023-05-22T02:13:21;100831.13;;;18.18;56.53
63204;BME280;49297;43.210;27.914;2023-05-22T02:15:47;100823.91;;;18.19;56.60
63204;BME280;49297;43.210;27.914;2023-05-22T02:18:15;100824.09;;;18.17;56.43
63204;BME280;49297;43.210;27.914;2023-05-22T02:20:45;100826.31;;;18.14;56.66
63204;BME280;49297;43.210;27.914;2023-05-22T02:23:12;100830.00;;;18.13;56.56
63204;BME280;49297;43.210;27.914;2023-05-22T02:25:38;100832.03;;;18.11;56.56
63204;BME280;49297;43.210;27.914;2023-05-22T02:28:04;100822.69;;;18.06;56.55
63204;BME280;49297;43.210;27.914;2023-05-22T02:30:30;100821.50;;;18.09;56.64
63204;BME280;49297;43.210;27.914;2023-05-22T02:32:57;100824.38;;;18.07;56.53
63204;BME280;49297;43.210;27.914;2023-05-22T02:35:24;100818.16;;;18.07;56.60
63204;BME280;49297;43.210;27.914;2023-05-22T02:37:50;100830.56;;;18.08;56.80
63204;BME280;49297;43.210;27.914;2023-05-22T02:40:18;100826.03;;;18.08;56.46
63204;BME280;49297;43.210;27.914;2023-05-22T02:42:44;100820.84;;;18.07;56.71
63204;BME280;49297;43.210;27.914;2023-05-22T02:45:11;100818.34;;;18.05;56.73
63204;BME280;49297;43.210;27.914;2023-05-22T02:47:43;100822.69;;;18.06;56.60
63204;BME280;49297;43.210;27.914;2023-05-22T02:50:09;100827.06;;;18.07;56.62
63204;BME280;49297;43.210;27.914;2023-05-22T02:52:35;100826.38;;;18.05;56.93
63204;BME280;49297;43.210;27.914;2023-05-22T02:55:03;100826.59;;;18.04;57.23
63204;BME280;49297;43.210;27.914;2023-05-22T02:57:39;100826.78;;;18.02;57.30
63204;BME280;49297;43.210;27.914;2023-05-22T03:00:05;100829.63;;;18.01;57.20
63204;BME280;49297;43.210;27.914;2023-05-22T03:02:33;100822.59;;;18.00;57.84
63204;BME280;49297;43.210;27.914;2023-05-22T03:05:00;100833.31;;;18.00;57.61
63204;BME280;49297;43.210;27.914;2023-05-22T03:07:26;100825.47;;;17.98;57.68
63204;BME280;49297;43.210;27.914;2023-05-22T03:09:54;100824.63;;;17.98;57.70
63204;BME280;49297;43.210;27.914;2023-05-22T03:12:20;100824.00;;;17.96;57.52
63204;BME280;49297;43.210;27.914;2023-05-22T03:14:46;100823.81;;;17.97;57.94
63204;BME280;49297;43.210;27.914;2023-05-22T03:17:12;100824.34;;;17.93;57.33
63204;BME280;49297;43.210;27.914;2023-05-22T03:19:38;100820.03;;;17.92;57.25
63204;BME280;49297;43.210;27.914;2023-05-22T03:22:04;100815.31;;;17.94;57.39
63204;BME280;49297;43.210;27.914;2023-05-22T03:24:31;100818.44;;;17.97;57.63
63204;BME280;49297;43.210;27.914;2023-05-22T03:27:05;100818.28;;;17.99;57.47
63204;BME280;49297;43.210;27.914;2023-05-22T03:29:32;100823.44;;;18.00;57.37
63204;BME280;49297;43.210;27.914;2023-05-22T03:31:58;100817.41;;;17.98;57.78
63204;BME280;49297;43.210;27.914;2023-05-22T03:34:25;100816.78;;;17.96;58.00
63204;BME280;49297;43.210;27.914;2023-05-22T03:36:52;100823.81;;;17.97;58.03
63204;BME280;49297;43.210;27.914;2023-05-22T03:39:18;100821.13;;;17.97;58.10
63204;BME280;49297;43.210;27.914;2023-05-22T03:41:44;100830.34;;;17.95;58.16
63204;BME280;49297;43.210;27.914;2023-05-22T03:44:10;100831.22;;;17.95;57.91
63204;BME280;49297;43.210;27.914;2023-05-22T03:46:37;100828.13;;;17.98;58.38
63204;BME280;49297;43.210;27.914;2023-05-22T03:49:05;100823.06;;;18.03;58.18
63204;BME280;49297;43.210;27.914;2023-05-22T03:51:33;100829.75;;;18.07;58.40
63204;BME280;49297;43.210;27.914;2023-05-22T03:54:05;100841.75;;;18.12;58.53
63204;BME280;49297;43.210;27.914;2023-05-22T03:56:33;100829.63;;;18.16;58.87
63204;BME280;49297;43.210;27.914;2023-05-22T03:58:59;100836.66;;;18.17;58.88
63204;BME280;49297;43.210;27.914;2023-05-22T04:01:25;100832.59;;;18.21;58.61
63204;BME280;49297;43.210;27.914;2023-05-22T04:03:52;100836.28;;;18.20;58.38
63204;BME280;49297;43.210;27.914;2023-05-22T04:06:19;100831.38;;;18.23;58.49
63204;BME280;49297;43.210;27.914;2023-05-22T04:08:48;100831.66;;;18.29;58.57
63204;BME280;49297;43.210;27.914;2023-05-22T04:11:16;100828.44;;;18.33;58.62
63204;BME280;49297;43.210;27.914;2023-05-22T04:13:43;100829.91;;;18.36;58.62
63204;BME280;49297;43.210;27.914;2023-05-22T04:16:09;100828.72;;;18.38;58.95
63204;BME280;49297;43.210;27.914;2023-05-22T04:18:37;100828.97;;;18.43;58.41
63204;BME280;49297;43.210;27.914;2023-05-22T04:21:04;100835.63;;;18.48;58.38
63204;BME280;49297;43.210;27.914;2023-05-22T04:23:32;100830.72;;;18.51;58.28
63204;BME280;49297;43.210;27.914;2023-05-22T04:25:58;100832.00;;;18.55;58.54
63204;BME280;49297;43.210;27.914;2023-05-22T04:28:27;100823.78;;;18.57;58.48
63204;BME280;49297;43.210;27.914;2023-05-22T04:31:01;100827.56;;;18.62;58.44
63204;BME280;49297;43.210;27.914;2023-05-22T04:33:31;100829.69;;;18.67;58.46
63204;BME280;49297;43.210;27.914;2023-05-22T04:35:58;100830.31;;;18.69;58.32
63204;BME280;49297;43.210;27.914;2023-05-22T04:38:26;100829.50;;;18.69;58.52
63204;BME280;49297;43.210;27.914;2023-05-22T04:40:52;100830.78;;;18.73;58.08
63204;BME280;49297;43.210;27.914;2023-05-22T04:43:18;100838.81;;;18.73;58.40
63204;BME280;49297;43.210;27.914;2023-05-22T04:45:46;100831.88;;;18.78;58.32
63204;BME280;49297;43.210;27.914;2023-05-22T04:48:12;100836.53;;;18.85;58.08
63204;BME280;49297;43.210;27.914;2023-05-22T04:50:40;100832.44;;;18.89;57.93
63204;BME280;49297;43.210;27.914;2023-05-22T04:53:06;100841.56;;;18.94;58.25
63204;BME280;49297;43.210;27.914;2023-05-22T04:55:33;100839.16;;;18.99;57.82
63204;BME280;49297;43.210;27.914;2023-05-22T04:58:01;100841.28;;;19.04;58.38
63204;BME280;49297;43.210;27.914;2023-05-22T05:00:46;100832.44;;;19.10;58.29
63204;BME280;49297;43.210;27.914;2023-05-22T05:03:12;100834.94;;;19.12;58.49
63204;BME280;49297;43.210;27.914;2023-05-22T05:05:39;100838.06;;;19.15;58.48
63204;BME280;49297;43.210;27.914;2023-05-22T05:08:05;100837.69;;;19.18;58.29
63204;BME280;49297;43.210;27.914;2023-05-22T05:10:31;100839.94;;;19.15;57.56
63204;BME280;49297;43.210;27.914;2023-05-22T05:12:57;100836.66;;;19.19;57.61
63204;BME280;49297;43.210;27.914;2023-05-22T05:15:25;100841.91;;;19.28;57.92
63204;BME280;49297;43.210;27.914;2023-05-22T05:17:52;100843.25;;;19.38;57.73
63204;BME280;49297;43.210;27.914;2023-05-22T05:20:19;100837.31;;;19.43;57.41
63204;BME280;49297;43.210;27.914;2023-05-22T05:22:45;100839.22;;;19.49;57.50
63204;BME280;49297;43.210;27.914;2023-05-22T05:25:12;100830.00;;;19.58;57.13
63204;BME280;49297;43.210;27.914;2023-05-22T05:27:38;100828.63;;;19.69;57.14
63204;BME280;49297;43.210;27.914;2023-05-22T05:30:13;100834.78;;;19.85;56.54
63204;BME280;49297;43.210;27.914;2023-05-22T05:32:39;100828.63;;;19.91;56.38
63204;BME280;49297;43.210;27.914;2023-05-22T05:35:08;100824.97;;;20.05;55.98
63204;BME280;49297;43.210;27.914;2023-05-22T05:37:37;100828.78;;;20.17;55.34
63204;BME280;49297;43.210;27.914;2023-05-22T05:40:03;100832.75;;;20.22;55.47
63204;BME280;49297;43.210;27.914;2023-05-22T05:42:31;100829.06;;;20.29;54.83
63204;BME280;49297;43.210;27.914;2023-05-22T05:44:59;100836.34;;;20.42;55.21
63204;BME280;49297;43.210;27.914;2023-05-22T05:47:26;100834.56;;;20.56;55.07
63204;BME280;49297;43.210;27.914;2023-05-22T05:49:54;100834.00;;;20.67;54.68
63204;BME280;49297;43.210;27.914;2023-05-22T05:52:21;100833.03;;;20.75;54.55
63204;BME280;49297;43.210;27.914;2023-05-22T05:54:48;100828.50;;;20.82;54.48
63204;BME280;49297;43.210;27.914;2023-05-22T05:57:14;100831.59;;;20.86;54.61
63204;BME280;49297;43.210;27.914;2023-05-22T05:59:40;100836.59;;;20.96;54.44
63204;BME280;49297;43.210;27.914;2023-05-22T06:02:06;100837.63;;;21.01;54.48
63204;BME280;49297;43.210;27.914;2023-05-22T06:04:33;100844.50;;;21.10;54.38
63204;BME280;49297;43.210;27.914;2023-05-22T06:06:59;100847.19;;;21.17;54.16
63204;BME280;49297;43.210;27.914;2023-05-22T06:09:29;100841.00;;;21.23;53.79
63204;BME280;49297;43.210;27.914;2023-05-22T06:11:57;100846.38;;;21.30;54.03
63204;BME280;49297;43.210;27.914;2023-05-22T06:14:23;100846.16;;;21.32;53.54
63204;BME280;49297;43.210;27.914;2023-05-22T06:16:50;100847.25;;;21.37;53.50
63204;BME280;49297;43.210;27.914;2023-05-22T06:19:20;100850.34;;;21.47;52.83
63204;BME280;49297;43.210;27.914;2023-05-22T06:21:46;100846.00;;;21.60;52.31
63204;BME280;49297;43.210;27.914;2023-05-22T06:24:12;100845.41;;;21.64;52.12
63204;BME280;49297;43.210;27.914;2023-05-22T06:26:37;100849.75;;;21.59;52.00
63204;BME280;49297;43.210;27.914;2023-05-22T06:29:05;100842.69;;;21.58;52.31
63204;BME280;49297;43.210;27.914;2023-05-22T06:31:31;100842.47;;;21.73;51.98
63204;BME280;49297;43.210;27.914;2023-05-22T06:34:00;100844.97;;;21.74;52.04
63204;BME280;49297;43.210;27.914;2023-05-22T06:36:26;100847.88;;;21.86;51.61
63204;BME280;49297;43.210;27.914;2023-05-22T06:38:52;100843.50;;;21.98;51.78
63204;BME280;49297;43.210;27.914;2023-05-22T06:41:19;100839.53;;;22.08;51.41
63204;BME280;49297;43.210;27.914;2023-05-22T06:43:46;100841.63;;;22.12;51.05
63204;BME280;49297;43.210;27.914;2023-05-22T06:46:11;100845.94;;;22.20;51.41
63204;BME280;49297;43.210;27.914;2023-05-22T06:48:37;100846.34;;;22.23;50.13
63204;BME280;49297;43.210;27.914;2023-05-22T06:51:03;100841.19;;;22.15;50.58
63204;BME280;49297;43.210;27.914;2023-05-22T06:53:29;100836.22;;;22.12;50.94
63204;BME280;49297;43.210;27.914;2023-05-22T06:55:55;100842.44;;;22.19;51.23
63204;BME280;49297;43.210;27.914;2023-05-22T06:58:21;100843.47;;;22.32;50.46
63204;BME280;49297;43.210;27.914;2023-05-22T07:00:47;100847.41;;;22.36;50.18
63204;BME280;49297;43.210;27.914;2023-05-22T07:03:14;100843.63;;;22.43;49.98
63204;BME280;49297;43.210;27.914;2023-05-22T07:05:40;100846.31;;;22.50;49.72
63204;BME280;49297;43.210;27.914;2023-05-22T07:08:06;100844.19;;;22.59;49.60
63204;BME280;49297;43.210;27.914;2023-05-22T07:10:32;100842.09;;;22.68;49.51
63204;BME280;49297;43.210;27.914;2023-05-22T07:12:58;100843.91;;;22.74;49.21
63204;BME280;49297;43.210;27.914;2023-05-22T07:15:24;100840.38;;;22.80;48.68
63204;BME280;49297;43.210;27.914;2023-05-22T07:17:50;100847.59;;;22.86;48.83
63204;BME280;49297;43.210;27.914;2023-05-22T07:20:15;100849.88;;;22.89;48.04
63204;BME280;49297;43.210;27.914;2023-05-22T07:22:42;100846.56;;;22.87;48.31
63204;BME280;49297;43.210;27.914;2023-05-22T07:25:08;100844.44;;;22.96;48.33
63204;BME280;49297;43.210;27.914;2023-05-22T07:27:34;100839.41;;;23.06;47.15
63204;BME280;49297;43.210;27.914;2023-05-22T07:30:00;100835.84;;;23.12;46.61
63204;BME280;49297;43.210;27.914;2023-05-22T07:32:26;100837.06;;;23.16;47.00
63204;BME280;49297;43.210;27.914;2023-05-22T07:34:52;100835.78;;;23.19;45.59
63204;BME280;49297;43.210;27.914;2023-05-22T07:37:18;100833.53;;;23.16;45.84
63204;BME280;49297;43.210;27.914;2023-05-22T07:39:43;100836.59;;;23.26;45.81
63204;BME280;49297;43.210;27.914;2023-05-22T07:42:11;100825.69;;;23.40;44.76
63204;BME280;49297;43.210;27.914;2023-05-22T07:44:39;100823.31;;;23.50;45.12
63204;BME280;49297;43.210;27.914;2023-05-22T07:47:05;100824.69;;;23.59;44.24
63204;BME280;49297;43.210;27.914;2023-05-22T07:49:31;100821.84;;;23.72;43.97
63204;BME280;49297;43.210;27.914;2023-05-22T07:51:57;100823.88;;;23.84;44.47
63204;BME280;49297;43.210;27.914;2023-05-22T07:54:23;100814.19;;;23.94;43.92
63204;BME280;49297;43.210;27.914;2023-05-22T07:56:49;100817.88;;;24.00;43.68
63204;BME280;49297;43.210;27.914;2023-05-22T07:59:15;100817.75;;;24.13;43.07
63204;BME280;49297;43.210;27.914;2023-05-22T08:01:45;100814.56;;;24.17;41.16
63204;BME280;49297;43.210;27.914;2023-05-22T08:04:11;100810.69;;;24.12;41.38
63204;BME280;49297;43.210;27.914;2023-05-22T08:06:36;100816.47;;;24.16;41.01
63204;BME280;49297;43.210;27.914;2023-05-22T08:09:03;100820.34;;;24.20;40.88
63204;BME280;49297;43.210;27.914;2023-05-22T08:11:29;100822.47;;;24.18;40.92
63204;BME280;49297;43.210;27.914;2023-05-22T08:13:55;100819.00;;;24.11;40.98
63204;BME280;49297;43.210;27.914;2023-05-22T08:16:21;100819.00;;;24.11;41.38
63204;BME280;49297;43.210;27.914;2023-05-22T08:18:48;100819.06;;;24.04;42.04
63204;BME280;49297;43.210;27.914;2023-05-22T08:21:13;100811.72;;;23.93;42.36
63204;BME280;49297;43.210;27.914;2023-05-22T08:23:39;100815.97;;;23.82;42.84
63204;BME280;49297;43.210;27.914;2023-05-22T08:26:05;100818.53;;;23.70;43.03
63204;BME280;49297;43.210;27.914;2023-05-22T08:28:33;100822.97;;;23.65;43.21
63204;BME280;49297;43.210;27.914;2023-05-22T08:30:58;100824.63;;;23.66;43.48
63204;BME280;49297;43.210;27.914;2023-05-22T08:33:24;100821.84;;;23.72;43.29
63204;BME280;49297;43.210;27.914;2023-05-22T08:35:51;100821.41;;;23.75;43.12
63204;BME280;49297;43.210;27.914;2023-05-22T08:38:17;100812.38;;;23.88;43.39
63204;BME280;49297;43.210;27.914;2023-05-22T08:40:46;100811.56;;;24.06;43.24
63204;BME280;49297;43.210;27.914;2023-05-22T08:43:14;100804.28;;;24.25;42.53
63204;BME280;49297;43.210;27.914;2023-05-22T08:45:40;100814.41;;;24.48;42.63
63204;BME280;49297;43.210;27.914;2023-05-22T08:48:12;100809.72;;;24.74;41.94
63204;BME280;49297;43.210;27.914;2023-05-22T08:50:41;100816.63;;;24.88;41.64
63204;BME280;49297;43.210;27.914;2023-05-22T08:53:10;100801.47;;;24.99;41.45
63204;BME280;49297;43.210;27.914;2023-05-22T08:55:40;100812.09;;;25.13;41.45
63204;BME280;49297;43.210;27.914;2023-05-22T08:58:07;100800.94;;;25.21;40.72
63204;BME280;49297;43.210;27.914;2023-05-22T09:00:34;100798.91;;;25.16;41.39
63204;BME280;49297;43.210;27.914;2023-05-22T09:03:00;100814.34;;;25.16;41.44
63204;BME280;49297;43.210;27.914;2023-05-22T09:05:26;100804.91;;;25.06;41.33
63204;BME280;49297;43.210;27.914;2023-05-22T09:07:53;100811.97;;;25.07;41.80
63204;BME280;49297;43.210;27.914;2023-05-22T09:10:19;100806.44;;;25.14;41.70
63204;BME280;49297;43.210;27.914;2023-05-22T09:13:04;100805.63;;;25.14;41.68
63204;BME280;49297;43.210;27.914;2023-05-22T09:15:32;100806.22;;;25.16;41.98
63204;BME280;49297;43.210;27.914;2023-05-22T09:17:59;100802.06;;;25.13;41.69
63204;BME280;49297;43.210;27.914;2023-05-22T09:20:25;100801.59;;;25.04;42.18
63204;BME280;49297;43.210;27.914;2023-05-22T09:22:51;100807.34;;;24.96;42.49
63204;BME280;49297;43.210;27.914;2023-05-22T09:25:18;100799.31;;;24.89;42.76
63204;BME280;49297;43.210;27.914;2023-05-22T09:27:47;100797.06;;;24.86;42.73
63204;BME280;49297;43.210;27.914;2023-05-22T09:30:17;100797.19;;;24.92;43.14
63204;BME280;49297;43.210;27.914;2023-05-22T09:32:47;100788.28;;;25.03;43.69
63204;BME280;49297;43.210;27.914;2023-05-22T09:35:13;100784.66;;;25.09;43.32
63204;BME280;49297;43.210;27.914;2023-05-22T09:37:39;100790.44;;;25.13;43.13
63204;BME280;49297;43.210;27.914;2023-05-22T09:40:10;100785.72;;;25.08;42.73
63204;BME280;49297;43.210;27.914;2023-05-22T09:42:36;100783.44;;;24.93;42.68
63204;BME280;49297;43.210;27.914;2023-05-22T09:45:06;100797.53;;;24.83;43.46
63204;BME280;49297;43.210;27.914;2023-05-22T09:47:33;100797.78;;;24.63;43.89
63204;BME280;49297;43.210;27.914;2023-05-22T09:50:00;100806.28;;;24.48;44.22
63204;BME280;49297;43.210;27.914;2023-05-22T09:52:33;100797.84;;;24.26;45.12
63204;BME280;49297;43.210;27.914;2023-05-22T09:55:02;100791.31;;;24.16;45.82
63204;BME280;49297;43.210;27.914;2023-05-22T09:57:31;100794.75;;;24.23;45.93
63204;BME280;49297;43.210;27.914;2023-05-22T10:00:02;100797.66;;;24.03;46.78
63204;BME280;49297;43.210;27.914;2023-05-22T10:02:30;100802.84;;;24.04;46.94
63204;BME280;49297;43.210;27.914;2023-05-22T10:04:58;100808.25;;;24.04;47.14
63204;BME280;49297;43.210;27.914;2023-05-22T10:07:31;100803.00;;;24.09;47.73
63204;BME280;49297;43.210;27.914;2023-05-22T10:10:03;100810.75;;;24.24;47.88
63204;BME280;49297;43.210;27.914;2023-05-22T10:12:32;100809.38;;;24.52;47.71
63204;BME280;49297;43.210;27.914;2023-05-22T10:15:02;100800.97;;;24.60;47.66
63204;BME280;49297;43.210;27.914;2023-05-22T10:17:32;100800.66;;;24.50;48.15
63204;BME280;49297;43.210;27.914;2023-05-22T10:19:58;100799.69;;;24.44;48.45
63204;BME280;49297;43.210;27.914;2023-05-22T10:22:26;100806.66;;;24.70;48.70
63204;BME280;49297;43.210;27.914;2023-05-22T10:24:53;100798.31;;;25.14;48.01
63204;BME280;49297;43.210;27.914;2023-05-22T10:27:19;100800.50;;;25.36;47.43
63204;BME280;49297;43.210;27.914;2023-05-22T10:33:02;100810.91;;;25.20;48.38
63204;BME280;49297;43.210;27.914;2023-05-22T10:35:55;100802.22;;;25.18;48.61
63204;BME280;49297;43.210;27.914;2023-05-22T10:40:58;100821.69;;;24.85;50.00
63204;BME280;49297;43.210;27.914;2023-05-22T10:43:28;100826.06;;;24.30;51.14
63204;BME280;49297;43.210;27.914;2023-05-22T10:46:02;100827.63;;;23.76;53.12
63204;BME280;49297;43.210;27.914;2023-05-22T10:48:36;100818.13;;;23.48;53.92
63204;BME280;49297;43.210;27.914;2023-05-22T10:51:02;100825.78;;;23.26;54.74
63204;BME280;49297;43.210;27.914;2023-05-22T10:53:32;100820.72;;;23.05;55.48
63204;BME280;49297;43.210;27.914;2023-05-22T10:55:59;100823.34;;;23.18;55.66
63204;BME280;49297;43.210;27.914;2023-05-22T10:58:33;100816.16;;;23.87;53.90
63204;BME280;49297;43.210;27.914;2023-05-22T11:01:07;100814.38;;;24.85;50.50
63204;BME280;49297;43.210;27.914;2023-05-22T11:04:08;100813.94;;;25.54;48.10
63204;BME280;49297;43.210;27.914;2023-05-22T11:06:43;100803.81;;;25.73;46.61
63204;BME280;49297;43.210;27.914;2023-05-22T11:09:32;100800.44;;;25.12;48.04
63204;BME280;49297;43.210;27.914;2023-05-22T11:12:23;100803.69;;;24.60;49.27
63204;BME280;49297;43.210;27.914;2023-05-22T11:14:58;100810.31;;;24.09;50.00
63204;BME280;49297;43.210;27.914;2023-05-22T11:17:29;100801.94;;;23.92;50.80
63204;BME280;49297;43.210;27.914;2023-05-22T11:20:00;100805.59;;;24.72;49.34
63204;BME280;49297;43.210;27.914;2023-05-22T11:24:55;100795.44;;;26.10;46.01
63204;BME280;49297;43.210;27.914;2023-05-22T11:27:21;100800.16;;;26.15;45.45
63204;BME280;49297;43.210;27.914;2023-05-22T11:29:48;100793.47;;;25.94;45.82
63204;BME280;49297;43.210;27.914;2023-05-22T11:32:14;100799.84;;;25.99;46.11
63204;BME280;49297;43.210;27.914;2023-05-22T11:34:48;100800.63;;;26.52;45.28
63204;BME280;49297;43.210;27.914;2023-05-22T11:37:17;100795.78;;;27.12;44.54
63204;BME280;49297;43.210;27.914;2023-05-22T11:39:56;100801.38;;;27.73;43.34
63204;BME280;49297;43.210;27.914;2023-05-22T11:42:22;100793.63;;;28.21;42.36
63204;BME280;49297;43.210;27.914;2023-05-22T11:44:49;100790.16;;;28.75;41.60
63204;BME280;49297;43.210;27.914;2023-05-22T11:47:15;100791.50;;;29.32;40.71
63204;BME280;49297;43.210;27.914;2023-05-22T11:49:41;100792.16;;;29.87;39.49
63204;BME280;49297;43.210;27.914;2023-05-22T11:52:10;100792.28;;;30.07;38.63
63204;BME280;49297;43.210;27.914;2023-05-22T11:54:36;100792.53;;;30.06;38.89
63204;BME280;49297;43.210;27.914;2023-05-22T11:57:07;100778.31;;;29.98;38.70
63204;BME280;49297;43.210;27.914;2023-05-22T11:59:33;100779.50;;;30.28;38.45
63204;BME280;49297;43.210;27.914;2023-05-22T12:01:59;100781.25;;;30.45;38.17
63204;BME280;49297;43.210;27.914;2023-05-22T12:04:25;100780.13;;;30.46;37.96
63204;BME280;49297;43.210;27.914;2023-05-22T12:06:52;100780.94;;;30.36;38.65
63204;BME280;49297;43.210;27.914;2023-05-22T12:09:18;100784.53;;;30.62;37.84
63204;BME280;49297;43.210;27.914;2023-05-22T12:11:47;100782.59;;;30.42;38.19
63204;BME280;49297;43.210;27.914;2023-05-22T12:14:14;100781.13;;;30.24;37.96
63204;BME280;49297;43.210;27.914;2023-05-22T12:16:40;100773.78;;;30.30;36.64
63204;BME280;49297;43.210;27.914;2023-05-22T12:19:09;100782.50;;;30.22;36.32
63204;BME280;49297;43.210;27.914;2023-05-22T12:21:39;100766.41;;;30.30;36.43
63204;BME280;49297;43.210;27.914;2023-05-22T12:24:08;100766.22;;;30.52;36.62
63204;BME280;49297;43.210;27.914;2023-05-22T12:26:35;100768.56;;;30.18;36.63
63204;BME280;49297;43.210;27.914;2023-05-22T12:29:02;100772.25;;;29.43;38.30
63204;BME280;49297;43.210;27.914;2023-05-22T12:31:33;100771.41;;;29.11;39.30
63204;BME280;49297;43.210;27.914;2023-05-22T12:34:05;100779.81;;;29.36;39.53
63204;BME280;49297;43.210;27.914;2023-05-22T12:36:38;100775.47;;;29.40;39.80
63204;BME280;49297;43.210;27.914;2023-05-22T12:39:08;100777.03;;;28.99;40.48
63204;BME280;49297;43.210;27.914;2023-05-22T12:41:35;100779.06;;;28.81;40.17
63204;BME280;49297;43.210;27.914;2023-05-22T12:44:01;100779.91;;;28.87;39.05
63204;BME280;49297;43.210;27.914;2023-05-22T12:46:32;100784.31;;;28.88;38.18
63204;BME280;49297;43.210;27.914;2023-05-22T12:48:59;100778.50;;;28.79;36.95
63204;BME280;49297;43.210;27.914;2023-05-22T12:51:26;100769.03;;;28.38;37.53
63204;BME280;49297;43.210;27.914;2023-05-22T12:53:57;100774.69;;;28.09;37.97
63204;BME280;49297;43.210;27.914;2023-05-22T12:56:23;100778.63;;;27.79;38.14
63204;BME280;49297;43.210;27.914;2023-05-22T12:58:50;100785.66;;;27.41;38.22
63204;BME280;49297;43.210;27.914;2023-05-22T13:01:15;100787.91;;;26.82;39.21
63204;BME280;49297;43.210;27.914;2023-05-22T13:03:41;100782.28;;;26.31;40.42
63204;BME280;49297;43.210;27.914;2023-05-22T13:06:07;100787.31;;;25.87;41.54
63204;BME280;49297;43.210;27.914;2023-05-22T13:08:33;100786.41;;;25.45;42.33
63204;BME280;49297;43.210;27.914;2023-05-22T13:10:59;100787.94;;;24.99;43.18
63204;BME280;49297;43.210;27.914;2023-05-22T13:13:25;100792.16;;;24.65;44.33